Time;durP1;ratioP1;P1;durP2;ratioP2;P2;SDS_P1;SDS_P2;PMS_P1;PMS_P2;Temp;Humidity;BMP_temperature;BMP_pressure;BME280_temperature;BME280_humidity;BME280_pressure;Samples;Min_cycle;Max_cycle;Signal;HPM_P1;HPM_P2
2023/03/26 00:01:35;;;;;;;2.17;1.17;;;;;;;9.59;81.43;98221.38;5008567;27;103112;-59
2023/03/26 00:04:05;;;;;;;1.40;0.90;;;;;;;9.64;80.87;98224.47;5008763;27;103192;-60
2023/03/26 00:06:37;;;;;;;1.63;1.07;;;;;;;9.54;81.35;98231.44;5014009;27;103278;-59
2023/03/26 00:09:08;;;;;;;4.10;1.40;;;;;;;9.38;81.89;98231.72;5011744;27;102794;-59
2023/03/26 00:11:37;;;;;;;2.23;1.10;;;;;;;9.42;81.83;98220.00;5007893;27;102777;-60
2023/03/26 00:14:08;;;;;;;2.10;1.30;;;;;;;9.47;81.14;98231.03;5006359;27;103209;-60
2023/03/26 00:16:37;;;;;;;4.40;1.53;;;;;;;9.42;81.04;98227.91;4998754;28;103362;-59
2023/03/26 00:19:06;;;;;;;4.27;1.40;;;;;;;9.24;82.23;98229.25;5005578;27;102760;-60
2023/03/26 00:21:35;;;;;;;2.60;1.40;;;;;;;9.33;81.69;98229.44;4996172;27;104143;-60
2023/03/26 00:24:06;;;;;;;2.33;1.20;;;;;;;9.38;81.15;98231.72;4993402;27;104602;-59
2023/03/26 00:26:37;;;;;;;1.50;1.10;;;;;;;9.43;80.88;98229.56;5011023;27;103222;-59
2023/03/26 00:29:07;;;;;;;1.80;1.27;;;;;;;9.33;80.55;98229.44;4995921;27;102752;-59
2023/03/26 00:31:38;;;;;;;2.90;1.10;;;;;;;9.37;80.62;98222.16;5000961;27;102947;-60
2023/03/26 00:34:07;;;;;;;3.17;1.50;;;;;;;9.44;80.49;98222.50;5006538;27;103749;-60
2023/03/26 00:36:36;;;;;;;2.13;1.20;;;;;;;9.40;80.77;98229.81;5012588;27;103195;-59
2023/03/26 00:39:05;;;;;;;2.53;1.23;;;;;;;9.41;80.35;98220.94;4995802;27;102901;-65
2023/03/26 00:41:35;;;;;;;4.03;1.30;;;;;;;9.41;80.37;98218.31;5017628;27;104067;-65
2023/03/26 00:44:04;;;;;;;2.10;1.27;;;;;;;9.45;80.07;98217.13;5009594;27;103277;-65
2023/03/26 00:46:32;;;;;;;3.67;1.30;;;;;;;9.41;80.12;98210.41;5009155;27;104546;-65
2023/03/26 00:49:02;;;;;;;3.40;1.30;;;;;;;9.47;80.21;98203.81;5002356;27;103135;-65
2023/03/26 00:51:32;;;;;;;3.70;1.37;;;;;;;9.41;80.14;98205.13;5013462;27;102964;-65
2023/03/26 00:54:00;;;;;;;2.87;1.30;;;;;;;9.44;80.18;98206.69;5011530;27;104002;-65
2023/03/26 00:56:28;;;;;;;1.50;0.97;;;;;;;9.45;80.41;98196.03;4992194;27;103481;-65
2023/03/26 00:58:56;;;;;;;3.93;1.43;;;;;;;9.29;80.72;98198.16;5004198;27;102781;-64
2023/03/26 01:01:26;;;;;;;3.40;1.47;;;;;;;9.24;80.74;98195.00;5010540;27;102764;-65
2023/03/26 01:03:58;;;;;;;4.50;1.40;;;;;;;9.14;80.66;98189.59;4998118;27;103786;-65
2023/03/26 01:06:34;;;;;;;2.20;1.13;;;;;;;9.10;80.29;98174.94;4993837;28;103254;-65
2023/03/26 01:09:12;;;;;;;3.93;1.27;;;;;;;9.04;80.93;98169.31;4988821;27;103016;-65
2023/03/26 01:11:41;;;;;;;6.17;1.40;;;;;;;9.10;80.47;98169.69;4983425;28;104069;-65
2023/03/26 01:14:12;;;;;;;4.87;1.30;;;;;;;9.21;80.21;98164.44;5007898;27;103333;-65
2023/03/26 01:16:44;;;;;;;3.73;1.10;;;;;;;9.30;79.83;98166.41;5009540;27;103197;-65
2023/03/26 01:19:19;;;;;;;2.97;1.17;;;;;;;9.28;79.84;98167.47;5006333;27;103088;-65
2023/03/26 01:21:49;;;;;;;3.17;1.20;;;;;;;9.16;80.80;98161.31;5004776;27;102872;-65
2023/03/26 01:24:18;;;;;;;2.13;1.00;;;;;;;9.02;81.27;98155.38;4994185;27;103598;-60
2023/03/26 01:27:19;;;;;;;3.10;1.40;;;;;;;9.01;81.14;98148.47;4992867;27;102928;-59
2023/03/26 01:29:54;;;;;;;1.83;1.17;;;;;;;8.95;80.89;98141.00;4994682;27;103074;-60
2023/03/26 01:32:36;;;;;;;2.83;1.43;;;;;;;8.98;81.41;98136.31;5013376;27;104084;-59
2023/03/26 01:35:18;;;;;;;3.43;1.50;;;;;;;9.08;80.98;98134.72;5010442;27;103374;-60
2023/03/26 01:38:01;;;;;;;5.00;1.80;;;;;;;8.95;81.06;98133.09;4991194;27;103277;-59
2023/03/26 01:40:41;;;;;;;2.17;1.20;;;;;;;9.14;80.69;98123.72;5017902;27;103132;-59
2023/03/26 01:43:17;;;;;;;3.17;0.90;;;;;;;9.05;80.39;98119.13;5014008;27;102764;-60
2023/03/26 01:45:49;;;;;;;3.40;1.10;;;;;;;9.10;81.02;98122.25;5010911;27;103289;-59
2023/03/26 01:48:18;;;;;;;4.07;1.60;;;;;;;8.99;81.25;98121.38;5012361;27;103252;-59
2023/03/26 01:50:47;;;;;;;3.27;1.47;;;;;;;9.00;81.08;98120.41;4994500;28;102975;-59
2023/03/26 01:53:16;;;;;;;3.23;1.17;;;;;;;9.13;80.53;98113.25;4992363;28;102695;-61
2023/03/26 01:55:55;;;;;;;4.43;1.40;;;;;;;9.14;80.13;98097.34;5019047;27;104734;-59
2023/03/26 01:58:31;;;;;;;4.13;1.30;;;;;;;9.10;80.30;98097.69;4998864;27;103181;-59
2023/03/26 02:01:12;;;;;;;1.67;1.03;;;;;;;9.14;80.21;98096.50;4985825;27;102819;-59
2023/03/26 02:03:46;;;;;;;3.43;1.40;;;;;;;9.25;79.56;98088.63;4983368;28;103105;-59
2023/03/26 02:06:20;;;;;;;4.53;1.00;;;;;;;9.34;79.19;98087.94;4992895;28;103260;-59
2023/03/26 02:08:53;;;;;;;2.73;1.30;;;;;;;9.22;79.54;98080.94;5012393;27;103628;-60
2023/03/26 02:11:25;;;;;;;2.93;0.93;;;;;;;9.34;79.35;98077.38;4999296;28;103120;-60
2023/03/26 02:14:04;;;;;;;1.70;1.00;;;;;;;9.38;78.71;98073.53;5010140;28;102595;-60
2023/03/26 02:16:33;;;;;;;4.10;1.37;;;;;;;9.27;79.66;98065.63;5005127;27;103494;-60
2023/03/26 02:19:03;;;;;;;2.20;1.43;;;;;;;9.34;79.56;98051.03;5014264;27;103179;-60
2023/03/26 02:21:32;;;;;;;2.83;1.10;;;;;;;9.28;80.12;98044.44;5018321;27;102642;-59
2023/03/26 02:24:02;;;;;;;3.43;1.20;;;;;;;9.37;79.21;98045.50;5013225;27;102924;-59
2023/03/26 02:26:36;;;;;;;2.20;0.90;;;;;;;9.48;79.12;98042.88;5010040;27;104013;-59
2023/03/26 02:29:08;;;;;;;1.23;0.73;;;;;;;9.53;78.23;98038.09;5003078;27;106128;-59
2023/03/26 02:31:38;;;;;;;1.87;1.03;;;;;;;9.54;78.30;98031.00;4992229;28;103873;-59
2023/03/26 02:34:06;;;;;;;2.97;1.30;;;;;;;9.41;78.87;98025.84;4991837;28;104776;-60
2023/03/26 02:36:37;;;;;;;3.23;1.30;;;;;;;9.23;80.19;98029.94;4997212;28;103209;-60
2023/03/26 02:39:09;;;;;;;2.60;0.97;;;;;;;9.19;79.80;98031.94;4992758;28;103207;-59
2023/03/26 02:41:40;;;;;;;1.80;1.20;;;;;;;9.06;80.59;98035.66;5015803;27;102935;-59
2023/03/26 02:44:11;;;;;;;3.23;1.33;;;;;;;9.22;80.32;98036.16;4992561;27;102702;-59
2023/03/26 02:47:06;;;;;;;3.47;1.10;;;;;;;9.29;79.62;98038.19;4984323;27;103198;-58
2023/03/26 02:50:10;;;;;;;3.40;1.13;;;;;;;9.34;79.28;98029.94;4984221;27;103042;-60
2023/03/26 02:53:01;;;;;;;5.03;1.10;;;;;;;9.27;79.91;98024.28;5005284;27;102745;-59
2023/03/26 02:55:34;;;;;;;6.70;1.50;;;;;;;9.28;79.93;98023.34;5005540;27;102717;-59
2023/03/26 02:58:07;;;;;;;4.23;1.57;;;;;;;9.19;79.88;98017.94;5003282;27;104532;-58
2023/03/26 03:00:37;;;;;;;3.50;1.17;;;;;;;9.12;80.17;98019.38;4991878;28;105441;-59
2023/03/26 03:03:27;;;;;;;3.80;1.30;;;;;;;9.37;79.38;98008.59;4992400;27;102883;-59
2023/03/26 03:06:01;;;;;;;4.03;1.20;;;;;;;9.25;79.61;98004.28;5006803;27;102871;-59
2023/03/26 03:08:40;;;;;;;4.33;1.70;;;;;;;9.24;79.51;97999.97;4984380;28;105444;-59
2023/03/26 03:11:10;;;;;;;4.53;1.20;;;;;;;9.16;79.91;97992.66;5006853;27;103179;-59
2023/03/26 03:13:45;;;;;;;2.53;0.93;;;;;;;9.10;79.94;97985.22;4983073;27;102766;-59
2023/03/26 03:16:18;;;;;;;3.03;1.30;;;;;;;9.24;79.64;97986.78;4993645;28;102757;-59
2023/03/26 03:18:53;;;;;;;4.23;1.27;;;;;;;9.29;79.45;97979.38;4985440;27;104364;-59
2023/03/26 03:21:24;;;;;;;3.97;1.30;;;;;;;9.31;79.21;97973.03;4994588;27;103437;-59
2023/03/26 03:23:52;;;;;;;2.23;1.27;;;;;;;9.48;78.68;97970.84;5006201;27;103009;-59
2023/03/26 03:26:22;;;;;;;2.20;1.20;;;;;;;9.52;78.38;97969.63;4992636;28;102838;-59
2023/03/26 03:28:55;;;;;;;1.83;1.13;;;;;;;9.60;78.48;97964.59;5009504;27;103329;-60
2023/03/26 03:31:25;;;;;;;2.10;1.10;;;;;;;9.59;78.76;97963.75;4987007;28;105041;-59
2023/03/26 03:33:58;;;;;;;4.17;0.83;;;;;;;9.59;78.26;97957.66;4990041;28;104031;-59
2023/03/26 03:36:29;;;;;;;4.50;1.53;;;;;;;9.52;77.92;97949.38;4991741;27;102800;-59
2023/03/26 03:39:04;;;;;;;1.87;0.97;;;;;;;9.52;77.89;97946.75;4993117;28;104098;-59
2023/03/26 03:41:34;;;;;;;4.07;1.17;;;;;;;9.61;78.06;97927.56;5005423;27;103378;-59
2023/03/26 03:44:06;;;;;;;4.63;1.50;;;;;;;9.45;78.42;97924.47;4994208;27;103873;-59
2023/03/26 03:46:36;;;;;;;2.80;1.23;;;;;;;9.45;79.30;97927.09;4996865;27;102830;-59
2023/03/26 03:49:05;;;;;;;1.57;1.00;;;;;;;9.51;79.49;97921.34;5004215;27;103449;-59
2023/03/26 03:51:38;;;;;;;2.23;0.77;;;;;;;9.60;78.69;97920.59;5006912;27;103032;-58
2023/03/26 03:54:17;;;;;;;3.60;1.00;;;;;;;9.65;78.23;97923.72;4995079;27;102729;-59
2023/03/26 03:56:46;;;;;;;4.17;1.30;;;;;;;9.67;77.88;97920.94;5013439;27;103099;-59
2023/03/26 03:59:31;;;;;;;3.97;1.20;;;;;;;9.70;78.69;97921.53;5008836;27;103156;-59
2023/03/26 04:02:00;;;;;;;2.97;0.93;;;;;;;9.71;78.81;97923.19;4990767;28;105063;-59
2023/03/26 04:04:38;;;;;;;3.40;1.03;;;;;;;9.60;79.07;97914.50;4992989;27;102800;-59
2023/03/26 04:07:11;;;;;;;3.53;1.57;;;;;;;9.63;79.67;97909.78;4986983;28;103937;-58
2023/03/26 04:10:02;;;;;;;5.57;1.70;;;;;;;9.59;78.78;97903.13;4984738;28;103229;-58
2023/03/26 04:12:51;;;;;;;3.53;1.40;;;;;;;9.61;78.86;97905.63;5014125;27;103218;-59
2023/03/26 04:15:34;;;;;;;3.60;1.47;;;;;;;9.57;79.47;97901.56;4995989;28;102710;-59
2023/03/26 04:18:03;;;;;;;3.53;1.37;;;;;;;9.56;79.28;97897.25;4995588;28;103301;-59
2023/03/26 04:20:32;;;;;;;4.33;1.20;;;;;;;9.60;79.18;97894.22;4995778;28;103702;-59
2023/03/26 04:23:02;;;;;;;3.07;1.10;;;;;;;9.56;79.53;97887.53;4995652;28;103849;-59
2023/03/26 04:25:32;;;;;;;3.23;1.17;;;;;;;9.53;79.58;97874.59;5010587;28;102720;-61
2023/03/26 04:28:10;;;;;;;3.23;0.90;;;;;;;9.67;79.35;97868.19;5012589;28;103191;-58
2023/03/26 04:31:00;;;;;;;2.10;1.00;;;;;;;9.73;78.75;97873.81;4990034;28;102931;-59
2023/03/26 04:33:37;;;;;;;4.10;1.43;;;;;;;9.61;79.54;97863.41;4992213;28;103384;-59
2023/03/26 04:36:08;;;;;;;2.13;1.00;;;;;;;9.73;78.81;97865.91;5008974;28;102658;-58
2023/03/26 04:38:40;;;;;;;3.37;1.07;;;;;;;9.62;78.90;97855.41;4994043;28;102709;-59
2023/03/26 04:41:12;;;;;;;4.40;1.40;;;;;;;9.61;78.99;97853.72;4986922;28;103307;-59
2023/03/26 04:43:52;;;;;;;2.77;1.00;;;;;;;9.67;79.36;97847.94;5011477;27;103118;-59
2023/03/26 04:46:42;;;;;;;6.13;1.53;;;;;;;9.44;80.65;97835.78;5004537;27;102560;-59
2023/03/26 04:49:17;;;;;;;4.37;1.60;;;;;;;9.25;81.21;97823.28;4985748;28;103002;-59
2023/03/26 04:51:46;;;;;;;4.33;1.30;;;;;;;9.31;81.08;97820.13;4984091;28;104138;-58
2023/03/26 04:54:35;;;;;;;3.63;1.10;;;;;;;9.59;80.29;97813.47;5009180;28;103191;-59
2023/03/26 04:57:13;;;;;;;3.13;1.30;;;;;;;9.63;80.63;97806.94;4997518;28;104419;-59
2023/03/26 04:59:55;;;;;;;5.10;1.23;;;;;;;9.61;80.44;97800.97;5006130;27;103737;-58
2023/03/26 05:02:25;;;;;;;3.63;1.40;;;;;;;9.67;80.11;97811.03;4991960;28;104088;-59
2023/03/26 05:04:56;;;;;;;4.10;0.97;;;;;;;9.66;80.39;97814.59;4991246;28;103697;-59
2023/03/26 05:07:27;;;;;;;2.23;1.20;;;;;;;9.75;79.76;97808.59;4991638;28;102662;-60
2023/03/26 05:09:57;;;;;;;2.20;1.20;;;;;;;9.75;79.94;97813.00;4991529;27;102670;-59
2023/03/26 05:12:42;;;;;;;2.97;1.17;;;;;;;9.74;79.57;97822.72;4990887;28;103446;-58
2023/03/26 05:15:18;;;;;;;3.87;1.20;;;;;;;9.74;79.94;97822.72;5010485;27;103219;-58
2023/03/26 05:18:20;;;;;;;3.47;1.10;;;;;;;9.67;80.23;97818.94;4994275;27;102731;-63
2023/03/26 05:20:51;;;;;;;4.33;1.30;;;;;;;9.74;79.63;97811.38;4994813;28;102759;-59
2023/03/26 05:23:20;;;;;;;1.73;0.93;;;;;;;9.74;79.53;97806.09;5001504;27;103403;-59
2023/03/26 05:25:54;;;;;;;3.13;1.07;;;;;;;9.62;80.06;97800.03;4998098;28;104111;-59
2023/03/26 05:28:25;;;;;;;6.27;1.90;;;;;;;9.46;80.67;97798.78;4995269;28;102654;-59
2023/03/26 05:31:01;;;;;;;3.57;1.40;;;;;;;9.22;82.25;97791.03;4994727;28;103646;-58
2023/03/26 05:33:35;;;;;;;3.60;1.27;;;;;;;9.22;81.98;97785.78;4993375;28;104164;-59
2023/03/26 05:36:14;;;;;;;4.73;1.00;;;;;;;9.25;82.83;97777.63;4992909;28;105125;-58
2023/03/26 05:38:48;;;;;;;3.53;1.20;;;;;;;9.50;81.35;97763.25;4990927;28;102742;-59
2023/03/26 05:41:39;;;;;;;4.60;1.47;;;;;;;9.53;81.14;97758.59;5000851;27;102818;-59
2023/03/26 05:44:07;;;;;;;5.40;1.57;;;;;;;9.56;79.91;97766.25;5017948;27;104049;-59
2023/03/26 05:46:35;;;;;;;4.30;1.50;;;;;;;9.67;79.70;97760.06;5005410;27;103212;-58
2023/03/26 05:49:05;;;;;;;3.90;1.30;;;;;;;9.69;79.08;97761.63;4985855;27;102660;-59
2023/03/26 05:51:35;;;;;;;4.07;1.60;;;;;;;9.74;79.04;97758.63;5006719;27;102661;-58
2023/03/26 05:54:22;;;;;;;6.27;1.80;;;;;;;9.65;79.94;97751.47;5010327;27;103898;-58
2023/03/26 05:57:08;;;;;;;5.37;1.60;;;;;;;9.46;80.16;97738.13;5012264;27;103208;-59
2023/03/26 05:59:55;;;;;;;3.03;1.20;;;;;;;9.49;79.87;97738.69;5013962;27;102841;-59
2023/03/26 06:02:42;;;;;;;4.70;1.50;;;;;;;9.59;78.91;97730.88;5000958;27;103103;-59
2023/03/26 06:05:33;;;;;;;4.13;1.87;;;;;;;9.61;79.21;97736.84;5009551;27;103161;-59
2023/03/26 06:08:28;;;;;;;6.20;2.17;;;;;;;9.70;79.57;97723.72;4998118;27;104789;-59
2023/03/26 06:11:00;;;;;;;7.30;1.57;;;;;;;9.49;80.95;97717.59;4990910;27;102680;-59
2023/03/26 06:13:31;;;;;;;2.87;1.57;;;;;;;9.57;80.82;97698.53;4993841;27;105277;-59
2023/03/26 06:15:59;;;;;;;3.03;1.47;;;;;;;9.61;82.05;97695.50;4994494;27;103301;-58
2023/03/26 06:18:32;;;;;;;5.47;2.17;;;;;;;9.62;80.70;97686.63;4993483;28;103230;-58
2023/03/26 06:21:21;;;;;;;4.53;1.50;;;;;;;9.60;80.39;97682.44;5011101;27;102649;-58
2023/03/26 06:24:15;;;;;;;3.80;1.87;;;;;;;9.63;80.75;97674.25;4994687;28;102847;-59
2023/03/26 06:27:06;;;;;;;4.37;1.37;;;;;;;9.72;78.97;97661.13;5001109;27;105377;-59
2023/03/26 06:29:50;;;;;;;5.03;1.83;;;;;;;9.66;79.29;97658.19;4986087;28;103495;-59
2023/03/26 06:32:25;;;;;;;6.47;1.83;;;;;;;9.82;79.74;97651.47;4995259;28;102586;-59
2023/03/26 06:35:06;;;;;;;3.37;1.30;;;;;;;9.97;79.16;97659.03;4996675;28;102753;-59
2023/03/26 06:37:38;;;;;;;3.70;1.60;;;;;;;9.84;78.53;97648.72;4993714;28;104208;-59
2023/03/26 06:40:08;;;;;;;4.87;1.80;;;;;;;9.78;79.07;97649.22;4995533;28;105733;-59
2023/03/26 06:42:59;;;;;;;3.50;1.70;;;;;;;9.67;78.96;97642.25;4996962;28;102745;-58
2023/03/26 06:45:50;;;;;;;2.47;1.37;;;;;;;9.66;78.99;97650.25;4996942;27;104482;-58
2023/03/26 06:48:42;;;;;;;3.57;1.20;;;;;;;9.60;77.54;97640.25;4961129;27;104865;-60
2023/03/26 06:51:28;;;;;;;3.63;1.40;;;;;;;9.69;77.23;97642.09;5002926;27;103973;-60
2023/03/26 06:54:07;;;;;;;4.23;1.50;;;;;;;9.71;76.52;97638.34;5001774;27;102850;-60
2023/03/26 06:57:01;;;;;;;3.13;1.20;;;;;;;9.94;76.21;97638.22;4990657;27;104108;-60
2023/03/26 06:59:52;;;;;;;1.90;1.40;;;;;;;10.02;76.15;97631.28;4989418;27;105367;-61
2023/03/26 07:02:39;;;;;;;5.37;1.50;;;;;;;10.02;76.53;97625.19;5007495;27;103140;-61
2023/03/26 07:05:25;;;;;;;7.37;1.30;;;;;;;10.00;76.14;97627.94;5003636;27;102967;-60
2023/03/26 07:08:25;;;;;;;4.87;1.30;;;;;;;9.96;76.07;97623.06;4957248;28;103086;-60
2023/03/26 07:11:15;;;;;;;5.27;1.27;;;;;;;9.80;75.51;97634.94;5007581;27;103159;-60
2023/03/26 07:14:12;;;;;;;2.30;1.37;;;;;;;9.72;77.96;97626.84;4939201;28;103139;-60
2023/03/26 07:16:47;;;;;;;5.77;1.50;;;;;;;9.75;77.23;97618.69;4972951;28;102629;-60
2023/03/26 07:19:44;;;;;;;3.23;1.20;;;;;;;9.82;77.46;97614.53;4978446;27;102829;-60
2023/03/26 07:22:18;;;;;;;3.37;1.43;;;;;;;9.83;77.87;97610.94;4980418;28;104842;-60
2023/03/26 07:25:07;;;;;;;2.50;0.90;;;;;;;9.89;77.29;97605.13;4997800;27;103121;-60
2023/03/26 07:27:59;;;;;;;4.17;1.43;;;;;;;9.93;76.97;97602.25;4985246;27;103326;-59
2023/03/26 07:31:03;;;;;;;3.97;1.73;;;;;;;9.86;77.83;97594.00;4979155;27;103069;-58
2023/03/26 07:33:52;;;;;;;2.43;1.20;;;;;;;9.77;78.75;97579.81;5004719;28;104115;-58
2023/03/26 07:36:49;;;;;;;4.10;2.10;;;;;;;9.79;78.53;97569.97;4983074;28;103700;-59
2023/03/26 07:39:47;;;;;;;5.93;2.00;;;;;;;9.76;79.11;97582.59;4959620;27;102719;-59
2023/03/26 07:42:58;;;;;;;4.60;1.53;;;;;;;9.76;78.56;97593.97;4973907;27;103737;-59
2023/03/26 07:45:44;;;;;;;4.67;1.63;;;;;;;9.89;78.19;97584.03;5001894;27;103235;-59
2023/03/26 07:48:25;;;;;;;5.33;1.63;;;;;;;9.87;78.90;97575.44;4994458;28;103321;-58
2023/03/26 07:51:14;;;;;;;5.33;1.73;;;;;;;9.54;80.60;97567.78;4983440;27;102775;-60
2023/03/26 07:54:11;;;;;;;6.07;2.17;;;;;;;9.67;81.40;97568.41;4980766;28;103538;-58
2023/03/26 07:57:06;;;;;;;5.07;1.80;;;;;;;9.61;83.06;97555.75;4975914;27;104165;-58
2023/03/26 07:59:40;;;;;;;3.77;1.97;;;;;;;9.77;82.41;97553.44;4994018;27;103099;-58
2023/03/26 08:02:49;;;;;;;9.67;1.97;;;;;;;9.77;83.56;97563.97;5000186;27;102703;-59
2023/03/26 08:06:03;;;;;;;5.47;1.87;;;;;;;9.74;84.07;97552.88;4959393;28;103165;-59
2023/03/26 08:08:57;;;;;;;5.50;1.83;;;;;;;9.65;84.70;97551.03;4968192;28;103190;-59
2023/03/26 08:11:53;;;;;;;4.10;1.87;;;;;;;9.63;85.32;97555.59;4997618;27;103224;-59
2023/03/26 08:14:35;;;;;;;3.80;1.53;;;;;;;9.71;85.53;97553.16;4971118;28;109574;-59
2023/03/26 08:17:13;;;;;;;4.10;1.77;;;;;;;9.58;86.21;97545.44;4966737;28;103862;-59
2023/03/26 08:19:56;;;;;;;4.53;2.03;;;;;;;9.47;86.78;97535.00;4968723;28;103291;-59
2023/03/26 08:22:33;;;;;;;3.67;1.73;;;;;;;9.55;88.35;97537.81;4968820;28;104250;-59
2023/03/26 08:25:16;;;;;;;6.70;2.30;;;;;;;9.55;87.76;97527.25;4965304;28;102982;-59
2023/03/26 08:27:55;;;;;;;3.40;1.97;;;;;;;9.70;87.51;97531.22;4985413;28;102656;-59
2023/03/26 08:30:25;;;;;;;6.10;2.47;;;;;;;9.70;88.53;97515.41;4974748;28;103253;-59
2023/03/26 08:32:58;;;;;;;5.33;2.13;;;;;;;9.56;88.60;97513.13;4970368;28;103224;-59
2023/03/26 08:35:28;;;;;;;5.77;2.53;;;;;;;9.60;89.29;97513.69;4976052;28;104202;-60
2023/03/26 08:37:57;;;;;;;5.20;2.10;;;;;;;9.64;89.03;97518.56;4980915;28;103839;-59
2023/03/26 08:40:44;;;;;;;7.83;2.60;;;;;;;9.61;88.85;97505.63;4981910;28;103508;-59
2023/03/26 08:43:47;;;;;;;6.13;2.27;;;;;;;9.53;88.21;97500.19;4962469;28;103277;-59
2023/03/26 08:47:03;;;;;;;5.17;2.10;;;;;;;9.60;89.83;97501.31;4972583;28;103030;-59
2023/03/26 08:49:55;;;;;;;4.73;2.33;;;;;;;9.56;90.69;97497.31;4941906;28;104640;-59
2023/03/26 08:52:57;;;;;;;5.07;2.10;;;;;;;9.48;90.87;97499.78;4967315;28;103242;-59
2023/03/26 08:55:52;;;;;;;3.90;2.10;;;;;;;9.87;89.65;97491.00;4965372;28;103114;-59
2023/03/26 08:59:03;;;;;;;5.07;1.90;;;;;;;10.15;88.09;97494.69;4949060;28;102786;-60
2023/03/26 09:02:03;;;;;;;5.17;2.00;;;;;;;9.93;89.15;97494.06;4959399;28;102718;-59
2023/03/26 09:08:22;;;;;;;6.37;2.20;;;;;;;9.61;91.84;97489.81;5079215;27;102865;-60
2023/03/26 09:10:55;;;;;;;3.07;1.70;;;;;;;9.89;91.39;97483.78;5059111;27;102816;-60
2023/03/26 09:13:57;;;;;;;4.47;1.50;;;;;;;9.96;91.81;97478.81;5060241;27;103300;-60
2023/03/26 09:16:45;;;;;;;3.00;1.60;;;;;;;9.80;91.74;97489.88;5057588;27;103200;-59
2023/03/26 09:19:48;;;;;;;19.20;8.77;;;;;;;9.45;92.48;97501.81;5050121;27;104494;-60
2023/03/26 09:23:01;;;;;;;32.47;17.23;;;;;;;9.21;95.27;97523.19;5046376;27;106444;-60
2023/03/26 09:25:56;;;;;;;19.73;12.23;;;;;;;9.97;92.49;97491.00;5012858;27;103067;-61
2023/03/26 09:28:58;;;;;;;10.43;5.00;;;;;;;10.38;89.97;97484.72;5068670;27;103163;-60
2023/03/26 09:31:47;;;;;;;7.63;3.10;;;;;;;10.54;89.01;97485.00;5010422;27;102970;-60
2023/03/26 09:34:29;;;;;;;4.43;2.00;;;;;;;10.73;88.12;97486.78;5046552;27;102823;-60
2023/03/26 09:37:17;;;;;;;4.77;2.00;;;;;;;10.62;88.99;97477.19;5067656;27;102984;-60
2023/03/26 09:40:03;;;;;;;3.23;1.37;;;;;;;10.96;87.99;97474.91;5064836;27;103232;-60
2023/03/26 09:42:43;;;;;;;4.03;1.40;;;;;;;11.13;85.48;97478.63;5069890;27;102716;-60
2023/03/26 09:45:30;;;;;;;2.07;1.40;;;;;;;11.47;83.42;97479.78;5073286;27;102796;-60
2023/03/26 09:48:32;;;;;;;2.87;1.10;;;;;;;12.48;82.53;97461.91;5071935;27;103331;-60
2023/03/26 09:51:22;;;;;;;6.10;2.43;;;;;;;12.03;83.54;97471.72;5065483;27;103214;-60
2023/03/26 09:54:28;;;;;;;2.00;1.00;;;;;;;12.53;84.20;97469.38;5065807;27;102706;-60
2023/03/26 09:57:05;;;;;;;1.73;1.00;;;;;;;12.44;82.65;97465.00;5044922;27;104398;-59
2023/03/26 10:00:03;;;;;;;4.37;1.30;;;;;;;12.24;83.08;97458.19;5070652;27;103370;-59
2023/03/26 10:02:51;;;;;;;1.50;1.03;;;;;;;12.27;80.59;97458.72;5072993;27;103207;-60
2023/03/26 10:05:41;;;;;;;2.70;1.17;;;;;;;12.39;80.76;97461.97;5067773;27;102971;-60
2023/03/26 10:08:34;;;;;;;2.17;1.20;;;;;;;12.56;79.57;97454.03;5052293;27;104704;-61
2023/03/26 10:11:09;;;;;;;1.83;1.00;;;;;;;12.67;79.07;97445.81;5053133;27;104216;-60
2023/03/26 10:13:52;;;;;;;1.50;0.90;;;;;;;12.61;78.03;97446.44;5069603;27;103182;-61
2023/03/26 10:16:31;;;;;;;3.10;1.33;;;;;;;13.21;76.07;97450.03;5071300;27;102805;-60
2023/03/26 10:19:18;;;;;;;2.43;1.13;;;;;;;13.76;76.39;97449.63;5057187;27;102964;-61
2023/03/26 10:21:56;;;;;;;2.80;1.13;;;;;;;14.02;74.96;97447.72;5052483;27;102985;-60
2023/03/26 10:24:48;;;;;;;2.97;1.53;;;;;;;14.62;73.20;97436.88;5048797;27;105031;-60
2023/03/26 10:27:27;;;;;;;2.07;1.20;;;;;;;14.35;73.13;97436.19;5047694;27;102683;-60
2023/03/26 10:30:25;;;;;;;1.93;1.00;;;;;;;14.68;71.61;97428.25;5051899;27;103002;-60
2023/03/26 10:33:02;;;;;;;1.70;0.93;;;;;;;14.38;66.25;97433.22;5034191;27;103271;-61
2023/03/26 10:35:43;;;;;;;3.20;1.10;;;;;;;14.03;66.44;97429.97;5055133;27;102959;-60
2023/03/26 10:38:18;;;;;;;1.33;0.90;;;;;;;14.19;66.00;97422.88;5055765;27;102773;-60
2023/03/26 10:41:04;;;;;;;1.97;1.10;;;;;;;13.95;68.15;97422.78;5052786;27;103245;-60
2023/03/26 10:43:56;;;;;;;1.10;0.73;;;;;;;13.51;66.19;97439.91;5038824;27;106137;-60
2023/03/26 10:47:20;;;;;;;1.10;0.60;;;;;;;13.28;63.88;97435.16;5040489;27;103777;-60
2023/03/26 10:50:15;;;;;;;1.83;0.90;;;;;;;13.96;65.31;97429.78;5053733;27;103090;-60
2023/03/26 10:52:55;;;;;;;3.10;0.90;;;;;;;14.38;61.70;97437.69;5057190;27;102718;-60
2023/03/26 10:55:31;;;;;;;1.47;0.77;;;;;;;14.25;60.46;97446.13;5052320;27;104059;-60
2023/03/26 10:58:04;;;;;;;2.10;0.60;;;;;;;14.66;57.88;97451.47;5059001;27;103194;-60
2023/03/26 11:00:39;;;;;;;3.90;0.70;;;;;;;14.59;59.12;97438.03;5057097;27;103348;-60
2023/03/26 11:03:26;;;;;;;1.30;0.70;;;;;;;14.86;56.82;97444.84;5058179;27;103073;-60
2023/03/26 11:06:02;;;;;;;1.23;0.60;;;;;;;15.23;56.16;97426.50;5037803;27;104138;-60
2023/03/26 11:08:39;;;;;;;1.10;0.70;;;;;;;15.41;53.87;97429.75;5033124;27;103926;-60
2023/03/26 11:11:19;;;;;;;1.20;0.70;;;;;;;15.65;54.59;97431.53;5037710;27;102712;-60
2023/03/26 11:14:00;;;;;;;1.90;0.93;;;;;;;16.04;53.83;97421.69;5055454;27;102883;-60
2023/03/26 11:16:48;;;;;;;1.63;0.90;;;;;;;16.12;53.22;97413.66;5049396;27;103396;-60
2023/03/26 11:19:24;;;;;;;1.90;0.80;;;;;;;16.32;53.50;97430.00;5053423;27;103213;-59
2023/03/26 11:22:03;;;;;;;1.43;0.60;;;;;;;15.49;51.48;97416.47;5020999;27;103289;-60
2023/03/26 11:24:54;;;;;;;2.37;0.83;;;;;;;15.06;49.62;97409.75;5046649;27;102943;-60
2023/03/26 11:27:30;;;;;;;2.83;1.10;;;;;;;15.68;48.40;97409.91;5027797;27;103289;-60
2023/03/26 11:30:14;;;;;;;0.80;0.60;;;;;;;15.92;48.52;97400.94;5003318;27;103227;-60
2023/03/26 11:33:11;;;;;;;2.63;0.70;;;;;;;16.45;47.66;97403.59;4988522;28;104032;-60
2023/03/26 11:35:50;;;;;;;3.00;0.83;;;;;;;16.16;48.65;97392.81;5000456;27;103287;-60
2023/03/26 11:38:29;;;;;;;1.20;0.80;;;;;;;15.96;48.77;97407.59;4988285;28;104389;-60
2023/03/26 11:41:00;;;;;;;1.10;1.00;;;;;;;15.66;49.76;97410.06;4989486;28;103244;-60
2023/03/26 11:43:56;;;;;;;2.23;1.20;;;;;;;15.29;48.04;97393.91;5002270;28;103146;-60
2023/03/26 11:46:49;;;;;;;2.50;1.33;;;;;;;15.19;48.72;97398.56;5003527;27;102693;-60
2023/03/26 11:50:02;;;;;;;3.30;2.50;;;;;;;14.57;48.11;97402.81;5005388;28;103227;-60
2023/03/26 11:52:32;;;;;;;3.77;0.90;;;;;;;14.86;48.40;97404.94;4966742;28;103470;-61
2023/03/26 11:55:02;;;;;;;2.03;0.75;;;;;;;14.71;48.87;97406.66;4981401;28;103668;-60
2023/03/26 11:57:34;;;;;;;2.17;0.87;;;;;;;14.38;51.69;97419.09;4979966;28;103839;-60
2023/03/26 12:00:15;;;;;;;1.10;0.67;;;;;;;14.29;55.61;97415.56;4985292;28;104194;-60
2023/03/26 12:02:45;;;;;;;2.33;0.90;;;;;;;13.79;60.08;97417.44;4989505;28;103188;-60
2023/03/26 12:05:18;;;;;;;0.80;0.70;;;;;;;13.85;61.88;97420.31;4969134;28;104871;-60
2023/03/26 12:07:56;;;;;;;3.27;1.33;;;;;;;13.76;65.65;97449.63;4984925;28;102950;-60
2023/03/26 12:10:32;;;;;;;2.97;0.73;;;;;;;12.83;69.72;97457.56;4986730;28;103313;-60
2023/03/26 12:13:06;;;;;;;1.60;0.73;;;;;;;12.57;71.43;97453.03;4964669;28;103216;-60
2023/03/26 12:15:43;;;;;;;4.40;0.97;;;;;;;12.79;73.24;97463.16;4985604;28;103658;-60
2023/03/26 12:18:24;;;;;;;1.33;0.70;;;;;;;13.26;71.43;97438.97;4974729;28;103014;-61
2023/03/26 12:21:04;;;;;;;1.20;0.93;;;;;;;13.05;74.23;97433.19;4988970;28;104137;-60
2023/03/26 12:23:55;;;;;;;1.27;0.70;;;;;;;14.08;69.76;97425.84;4992357;28;103167;-60
2023/03/26 12:26:38;;;;;;;1.43;0.70;;;;;;;13.93;69.67;97416.81;4989818;28;102655;-59
2023/03/26 12:29:09;;;;;;;1.90;0.67;;;;;;;14.46;69.27;97406.63;4983313;28;103287;-59
2023/03/26 12:31:45;;;;;;;1.03;0.50;;;;;;;14.95;64.79;97409.25;4992119;28;103291;-59
2023/03/26 12:34:15;;;;;;;1.13;0.80;;;;;;;14.89;63.98;97400.13;4992732;28;102982;-60
2023/03/26 12:36:50;;;;;;;2.50;0.57;;;;;;;14.86;64.34;97391.66;4992492;28;103264;-60